Hammond, Montana
Current Conditions -  °F | °C
As of 7:53 PM on Saturday 20 Dec 2014 (Local Time) from KGCC Reporting Station
Scattered Clouds Scattered Clouds  
Wind Chill: 25°   Ceiling: Unl
Heat Index: 33°   Visibility: 10mi
Dew Point: 26°   Wind: 10mph
Humidity: 75%   Direction: 170°S
Pressure: 29.79"   Gusts: NA
Location:  45.23°N, 104.92°W
Report Text: KGCC 210253Z AUTO 17009KT 10SM SCT120 01/M03 A2979 RMK AO2 SLP116 T00061033 56016 TSNO
Loading
Personal Weather Stations






























Interactive Weather Map New forecast layout! Learn more

10-Day Weather Forecast

Advertisements
Track Severe Weather on mobile